Decoded Metar for OIAA (ABADAN in IRAN) (IATA:ABD) | Meteo·Mobile Aviation Weather
aviador You're here:

OIAA Decoded Metar

ABADAN in IRAN
Report Time2019-02-18 11:00:00
UTC Time2019-02-18 11:08:08
Flight Rules vfr VFR
Wind310° at 12 kt
W.Decomp.*RWY 32: 11.7 kt HW 2.7 kt LCW
W.Rank310° ranks 3
Current wind is above 310° avg. (9.1)
Visibility9999 m
Phenomena:N/A
Clouds:Few 040 Hf
Expected CloudBase > 7,200 ft AGL from Temp-Dew spread
CeilingNone
Temp20°C (ISA +5)
Dew Point02°C (30% RH)
AAT14.0°C
QNH1014 hPa
Density Alt696 ft
Elevation36 ft
Report Wrong Elevation
Raw Report
METAR OIAA 181100Z 31012KT 9999 FEW040 20/02 Q1014=

Extra information for OIAA:More info

Metar Taf Metar & Taf Last 4 Metars F.Rules Stats Wind Profile Meteogram Temp Stats Airport Information Weather charts Add Link Nearby VenuesMetar ALERT Operation Metar Decoded Social comments